createdAt,value
2023-02-13T00:01:29.795Z,43.20
2023-02-13T00:03:58.514Z,41.60
2023-02-13T00:06:27.589Z,42.08
2023-02-13T00:08:56.198Z,42.90
2023-02-13T00:11:24.925Z,44.40
2023-02-13T00:13:53.572Z,43.70
2023-02-13T00:16:22.197Z,41.88
2023-02-13T00:18:50.900Z,42.90
2023-02-13T00:21:19.622Z,41.78
2023-02-13T00:23:48.234Z,43.63
2023-02-13T00:26:18.268Z,43.08
2023-02-13T00:28:47.784Z,42.85
2023-02-13T00:31:20.110Z,43.25
2023-02-13T00:33:49.060Z,44.17
2023-02-13T00:36:21.481Z,45.03
2023-02-13T00:38:50.498Z,44.67
2023-02-13T00:41:19.635Z,43.72
2023-02-13T00:43:49.306Z,46.35
2023-02-13T00:46:19.013Z,46.38
2023-02-13T00:48:48.019Z,46.25
2023-02-13T00:51:16.913Z,46.92
2023-02-13T00:53:46.446Z,46.00
2023-02-13T00:56:15.157Z,43.65
2023-02-13T00:58:43.888Z,43.38
2023-02-13T01:01:12.732Z,63.15
2023-02-13T01:03:42.042Z,42.83
2023-02-13T01:06:11.005Z,41.88
2023-02-13T01:08:41.764Z,41.08
2023-02-13T01:11:11.010Z,41.50
2023-02-13T01:13:39.794Z,41.65
2023-02-13T01:16:08.833Z,41.03
2023-02-13T01:18:37.580Z,40.45
2023-02-13T01:21:09.346Z,40.17
2023-02-13T01:23:40.167Z,41.88
2023-02-13T01:26:10.574Z,42.80
2023-02-13T01:28:39.369Z,41.13
2023-02-13T01:31:08.205Z,43.50
2023-02-13T01:33:37.169Z,44.80
2023-02-13T01:36:11.495Z,43.47
2023-02-13T01:38:51.292Z,43.83
2023-02-13T01:41:20.034Z,42.80
2023-02-13T01:43:55.538Z,42.40
2023-02-13T01:46:29.582Z,41.13
2023-02-13T01:49:04.489Z,41.72
2023-02-13T01:51:36.612Z,41.70
2023-02-13T01:54:14.608Z,40.55
2023-02-13T01:56:48.750Z,42.30
2023-02-13T01:59:22.990Z,41.28
2023-02-13T02:01:52.655Z,40.80
2023-02-13T02:04:26.187Z,39.47
2023-02-13T02:07:03.347Z,40.10
2023-02-13T02:09:36.494Z,40.22
2023-02-13T02:12:44.416Z,40.50
2023-02-13T02:15:13.500Z,42.05
2023-02-13T02:17:42.255Z,39.47
2023-02-13T02:20:50.374Z,40.90
2023-02-13T02:23:53.530Z,40.33
2023-02-13T02:26:27.280Z,40.10
2023-02-13T02:29:27.676Z,40.92
2023-02-13T02:32:30.717Z,40.65
2023-02-13T02:35:19.630Z,40.60
2023-02-13T02:38:09.412Z,41.65
2023-02-13T02:40:58.397Z,39.92
2023-02-13T02:43:36.536Z,42.38
2023-02-13T02:46:30.108Z,42.80
2023-02-13T02:49:26.849Z,46.38
2023-02-13T02:52:03.629Z,42.47
2023-02-13T02:54:58.599Z,43.38
2023-02-13T02:57:52.251Z,41.70
2023-02-13T03:00:44.469Z,41.25
2023-02-13T03:03:39.001Z,39.55
2023-02-13T03:22:18.798Z,36.80
2023-02-13T03:29:32.062Z,34.85
2023-02-13T03:32:26.335Z,33.45
2023-02-13T03:35:34.163Z,35.53
2023-02-13T03:38:09.792Z,34.22
2023-02-13T03:41:08.855Z,34.97
2023-02-13T03:43:49.542Z,34.80
2023-02-13T03:46:21.888Z,34.95
2023-02-13T03:51:40.576Z,32.72
2023-02-13T03:54:20.602Z,34.17
2023-02-13T03:57:12.184Z,34.65
2023-02-13T04:16:11.733Z,32.28
2023-02-13T04:18:41.397Z,30.63
2023-02-13T04:21:10.621Z,30.65
2023-02-13T04:23:40.424Z,30.60
2023-02-13T04:26:16.103Z,31.35
2023-02-13T04:28:45.046Z,30.40
2023-02-13T04:31:14.359Z,28.77
2023-02-13T04:33:43.947Z,28.35
2023-02-13T04:36:12.789Z,29.13
2023-02-13T04:38:41.778Z,27.33
2023-02-13T04:41:10.684Z,25.27
2023-02-13T04:43:40.269Z,25.80
2023-02-13T04:50:19.508Z,27.73
2023-02-13T04:52:49.001Z,27.33
2023-02-13T04:55:18.636Z,26.40
